Holbrook, Nebraska
Current Conditions -  °F | °C
As of 3:53 AM on Monday 26 Jan 2015 (Local Time) from KMCK Reporting Station
Clear Clear  
Wind Chill: 31°   Ceiling: Unl
Heat Index: 39°   Visibility: 10mi
Dew Point: 31°   Wind: 14mph
Humidity: 73%   Direction: 270°W
Pressure: 30.03"   Gusts: NA
Location:  40.3°N, 100.01°W
Report Text: KMCK 260953Z AUTO 27012KT 10SM CLR 04/M01 A3003 RMK AO2 SLP174 T00391006
Loading
Personal Weather Stations






























Interactive Weather Map New forecast layout! Learn more

10-Day Weather Forecast

Advertisements
Track Severe Weather on mobile